createdAt,value
2023-02-01T00:02:06.377Z,4.40
2023-02-01T00:04:37.459Z,4.40
2023-02-01T00:07:07.600Z,4.40
2023-02-01T00:09:37.406Z,4.40
2023-02-01T00:12:09.975Z,4.40
2023-02-01T00:14:40.532Z,4.40
2023-02-01T00:17:10.503Z,4.40
2023-02-01T00:19:40.354Z,4.30
2023-02-01T00:22:10.180Z,4.30
2023-02-01T00:24:40.149Z,4.30
2023-02-01T00:27:18.466Z,4.30
2023-02-01T00:29:48.597Z,4.20
2023-02-01T00:32:18.659Z,4.20
2023-02-01T00:34:48.427Z,4.30
2023-02-01T00:37:18.363Z,4.30
2023-02-01T00:39:48.183Z,4.30
2023-02-01T00:42:20.633Z,4.20
2023-02-01T00:44:50.431Z,4.20
2023-02-01T00:47:21.181Z,4.20
2023-02-01T00:49:51.037Z,4.20
2023-02-01T00:52:20.851Z,4.20
2023-02-01T00:54:50.694Z,4.20
2023-02-01T00:57:23.135Z,4.10
2023-02-01T00:59:52.904Z,4.10
2023-02-01T01:02:22.976Z,4.10
2023-02-01T01:04:53.123Z,4.10
2023-02-01T01:07:22.879Z,4.00
2023-02-01T01:09:52.705Z,4.00
2023-02-01T01:12:25.239Z,4.00
2023-02-01T01:14:55.084Z,4.00
2023-02-01T01:17:24.918Z,4.10
2023-02-01T01:19:54.681Z,4.10
2023-02-01T01:22:24.435Z,4.10
2023-02-01T01:24:54.309Z,4.10
2023-02-01T01:27:26.824Z,4.10
2023-02-01T01:29:56.630Z,4.20
2023-02-01T01:32:26.408Z,4.20
2023-02-01T01:34:56.206Z,4.20
2023-02-01T01:37:26.104Z,4.30
2023-02-01T01:39:56.843Z,4.30
2023-02-01T01:42:29.287Z,4.20
2023-02-01T01:45:04.831Z,4.20
2023-02-01T01:47:39.339Z,4.20
2023-02-01T01:50:11.680Z,4.20
2023-02-01T01:52:42.903Z,4.20
2023-02-01T01:55:13.541Z,4.20
2023-02-01T01:57:50.005Z,4.20
2023-02-01T02:00:23.100Z,4.30
2023-02-01T02:03:00.578Z,4.30
2023-02-01T02:05:30.883Z,4.30
2023-02-01T02:08:03.262Z,4.30
2023-02-01T02:10:47.085Z,4.30
2023-02-01T02:13:21.599Z,4.30
2023-02-01T02:15:59.843Z,4.30
2023-02-01T02:18:35.751Z,4.30
2023-02-01T02:21:18.387Z,4.30
2023-02-01T02:24:15.878Z,4.30
2023-02-01T02:27:23.911Z,4.30
2023-02-01T02:30:27.469Z,4.30
2023-02-01T02:33:25.339Z,4.30
2023-02-01T02:36:03.172Z,4.30
2023-02-01T02:38:41.152Z,4.30
2023-02-01T02:41:39.431Z,4.30
2023-02-01T02:44:28.942Z,4.30
2023-02-01T02:47:18.363Z,4.30
2023-02-01T02:50:15.860Z,4.30
2023-02-01T02:53:08.248Z,4.30
2023-02-01T02:55:41.486Z,4.30
2023-02-01T02:58:25.081Z,4.30
2023-02-01T03:01:09.324Z,4.30
2023-02-01T03:03:53.858Z,4.30
2023-02-01T03:06:23.623Z,4.30
2023-02-01T03:08:58.642Z,4.30
2023-02-01T03:11:50.242Z,4.30
2023-02-01T03:14:19.728Z,4.30
2023-02-01T03:16:55.331Z,4.30
2023-02-01T03:19:28.938Z,4.30
2023-02-01T03:22:02.816Z,4.30
2023-02-01T03:24:40.616Z,4.20
2023-02-01T03:27:16.941Z,4.20
2023-02-01T03:29:51.851Z,4.20
2023-02-01T03:32:21.979Z,4.20
2023-02-01T03:34:52.327Z,4.20
2023-02-01T03:37:27.784Z,4.20
2023-02-01T03:40:04.297Z,4.30
2023-02-01T03:42:39.942Z,4.30
2023-02-01T03:45:15.742Z,4.30
2023-02-01T03:47:50.561Z,4.30
2023-02-01T03:50:24.074Z,4.40
2023-02-01T03:52:58.224Z,4.40
2023-02-01T03:55:31.888Z,4.40
2023-02-01T03:58:07.926Z,4.40
2023-02-01T04:00:37.947Z,4.40
2023-02-01T04:03:10.219Z,4.40
2023-02-01T04:05:40.123Z,4.40
2023-02-01T04:08:09.972Z,4.40
2023-02-01T04:10:42.376Z,4.40
2023-02-01T04:13:12.372Z,4.40
2023-02-01T04:15:42.196Z,4.30
2023-02-01T04:18:12.007Z,4.30
2023-02-01T04:20:41.795Z,4.40
2023-02-01T04:23:11.615Z,4.40
2023-02-01T04:25:43.942Z,4.50
2023-02-01T04:28:13.713Z,4.50
2023-02-01T04:30:43.796Z,4.50
2023-02-01T04:33:15.014Z,4.50
2023-02-01T04:35:44.902Z,4.60
2023-02-01T04:38:14.683Z,4.60
2023-02-01T04:40:47.086Z,4.60
2023-02-01T04:43:16.863Z,4.70
2023-02-01T04:45:51.663Z,4.70
2023-02-01T04:48:25.006Z,4.70
2023-02-01T04:50:55.029Z,4.70
2023-02-01T04:53:26.295Z,4.70
2023-02-01T04:55:58.940Z,4.60
2023-02-01T04:58:28.789Z,4.60
2023-02-01T05:00:58.656Z,4.60
2023-02-01T05:03:28.699Z,4.70
2023-02-01T05:05:58.629Z,4.70
2023-02-01T05:08:29.862Z,4.70
2023-02-01T05:11:03.508Z,4.60
2023-02-01T05:13:45.912Z,4.70
2023-02-01T05:16:15.729Z,4.70
2023-02-01T05:18:45.562Z,4.70
2023-02-01T05:21:15.418Z,4.70
2023-02-01T05:23:57.472Z,4.70
2023-02-01T05:26:29.871Z,4.80
2023-02-01T05:28:59.793Z,4.80
2023-02-01T05:31:29.611Z,4.90
2023-02-01T05:33:59.408Z,4.90
2023-02-01T05:36:30.167Z,4.90
2023-02-01T05:38:59.964Z,5.00
2023-02-01T05:41:32.505Z,5.10
2023-02-01T05:44:02.331Z,5.20
2023-02-01T05:46:32.138Z,5.20
2023-02-01T05:49:01.971Z,5.20
2023-02-01T05:51:31.815Z,5.30
2023-02-01T05:54:01.623Z,5.30
2023-02-01T05:56:34.034Z,5.40
2023-02-01T05:59:03.796Z,5.30
2023-02-01T06:01:33.605Z,5.40
2023-02-01T06:04:03.430Z,5.40
2023-02-01T06:06:33.458Z,5.40
2023-02-01T06:09:03.603Z,5.40
2023-02-01T06:11:36.095Z,5.40
2023-02-01T06:14:05.915Z,5.50
2023-02-01T06:16:35.699Z,5.50
2023-02-01T06:19:05.488Z,5.50
2023-02-01T06:21:35.315Z,5.40
2023-02-01T06:24:05.082Z,5.40
2023-02-01T06:26:37.510Z,5.40
2023-02-01T06:29:07.554Z,5.50
2023-02-01T06:31:37.394Z,5.40
2023-02-01T06:34:07.222Z,5.40
2023-02-01T06:36:37.072Z,5.40
2023-02-01T06:39:07.014Z,5.40
2023-02-01T06:41:39.883Z,5.50
2023-02-01T06:44:09.747Z,5.50
2023-02-01T06:46:39.614Z,5.50
2023-02-01T06:49:09.508Z,5.50
2023-02-01T06:51:39.294Z,5.50
2023-02-01T06:54:13.110Z,5.50
2023-02-01T06:56:45.457Z,5.60
2023-02-01T06:59:17.354Z,5.60
2023-02-01T07:01:47.356Z,5.60
2023-02-01T07:04:17.151Z,5.60
2023-02-01T07:06:47.225Z,5.60
2023-02-01T07:09:17.188Z,5.60
2023-02-01T07:11:49.566Z,5.60
2023-02-01T07:14:19.322Z,5.60
2023-02-01T07:16:49.103Z,5.60
2023-02-01T07:19:19.154Z,5.60
2023-02-01T07:21:48.893Z,5.60
2023-02-01T07:24:18.717Z,5.70
2023-02-01T07:26:52.108Z,5.60
2023-02-01T07:29:22.214Z,5.60
2023-02-01T07:31:52.007Z,5.60
2023-02-01T07:34:21.804Z,5.70
2023-02-01T07:36:51.582Z,5.70
2023-02-01T07:39:21.315Z,5.60
2023-02-01T07:41:53.648Z,5.60
2023-02-01T07:44:24.169Z,5.70
2023-02-01T07:46:54.083Z,5.70
2023-02-01T07:49:23.827Z,5.70
2023-02-01T07:51:53.620Z,5.70
2023-02-01T07:54:23.569Z,5.80
2023-02-01T07:56:56.010Z,5.80
2023-02-01T07:59:25.821Z,5.80
2023-02-01T08:01:53.066Z,5.70
2023-02-01T08:04:22.925Z,5.70
2023-02-01T08:06:52.951Z,5.70
2023-02-01T08:09:22.680Z,5.80
2023-02-01T08:11:55.046Z,5.80
2023-02-01T08:14:24.843Z,5.80
2023-02-01T08:16:54.722Z,5.80
2023-02-01T08:19:24.448Z,5.80
2023-02-01T08:21:54.263Z,5.90
2023-02-01T08:24:23.990Z,5.90
2023-02-01T08:26:56.344Z,6.00
2023-02-01T08:29:26.158Z,6.00
2023-02-01T08:31:56.043Z,6.10
2023-02-01T08:34:26.498Z,6.10
2023-02-01T08:37:00.976Z,6.10
2023-02-01T08:39:31.086Z,6.10
2023-02-01T08:42:16.019Z,6.10
2023-02-01T08:44:45.669Z,6.00
2023-02-01T08:47:15.484Z,6.00
2023-02-01T08:49:45.258Z,6.10
2023-02-01T08:52:16.298Z,6.00
2023-02-01T08:54:46.334Z,6.00
2023-02-01T08:57:19.219Z,6.00
2023-02-01T08:59:49.005Z,6.00
2023-02-01T09:02:20.307Z,6.00
2023-02-01T09:04:50.123Z,6.00
2023-02-01T09:07:20.542Z,6.10
2023-02-01T09:09:50.419Z,6.00
2023-02-01T09:12:22.834Z,6.00
2023-02-01T09:14:52.726Z,6.00
2023-02-01T09:17:22.631Z,6.10
2023-02-01T09:19:52.640Z,6.10
2023-02-01T09:22:22.472Z,6.10
2023-02-01T09:24:53.530Z,6.10
2023-02-01T09:27:26.826Z,6.20
2023-02-01T09:29:56.706Z,6.20
2023-02-01T09:32:27.656Z,6.30
2023-02-01T09:34:57.673Z,6.30
2023-02-01T09:37:27.533Z,6.30
2023-02-01T09:39:57.457Z,6.30
2023-02-01T09:42:50.273Z,6.20
2023-02-01T09:45:27.672Z,6.20
2023-02-01T09:48:01.612Z,6.20
2023-02-01T09:50:38.387Z,6.30
2023-02-01T09:53:14.413Z,6.30
2023-02-01T09:55:47.330Z,6.40
2023-02-01T09:58:26.119Z,6.50
2023-02-01T10:00:57.653Z,6.40
2023-02-01T10:03:31.065Z,6.50
2023-02-01T10:06:23.928Z,6.50
2023-02-01T10:09:24.135Z,6.60
2023-02-01T10:12:22.426Z,6.60
2023-02-01T10:15:03.828Z,6.70
2023-02-01T10:17:49.412Z,6.70
2023-02-01T10:20:55.875Z,6.90
2023-02-01T10:23:50.068Z,7.00
2023-02-01T10:26:23.624Z,7.10
2023-02-01T10:28:55.308Z,7.00
2023-02-01T10:31:32.277Z,7.00
2023-02-01T10:34:04.131Z,6.80
2023-02-01T10:36:37.610Z,6.80
2023-02-01T10:39:09.126Z,6.70
2023-02-01T10:41:40.719Z,6.70
2023-02-01T10:44:16.907Z,6.70
2023-02-01T10:46:49.707Z,6.60
2023-02-01T10:49:24.519Z,6.70
2023-02-01T10:52:01.010Z,6.70
2023-02-01T10:54:39.266Z,6.60
2023-02-01T10:57:12.262Z,6.60
2023-02-01T10:59:44.196Z,6.60
2023-02-01T11:02:29.173Z,6.50
2023-02-01T11:05:07.023Z,6.60
2023-02-01T11:07:36.948Z,6.60
2023-02-01T11:10:08.311Z,6.60
2023-02-01T11:12:40.286Z,6.60
2023-02-01T11:15:22.910Z,6.60
2023-02-01T11:17:57.452Z,6.60
2023-02-01T11:20:41.689Z,6.60
2023-02-01T11:23:18.405Z,6.70
2023-02-01T11:25:56.819Z,6.70
2023-02-01T11:28:29.628Z,6.60
2023-02-01T11:31:03.358Z,6.70
2023-02-01T11:33:39.745Z,6.70
2023-02-01T11:36:12.635Z,6.60
2023-02-01T11:38:42.396Z,6.60
2023-02-01T11:41:24.627Z,6.50
2023-02-01T11:43:57.490Z,6.70
2023-02-01T11:46:32.995Z,6.70
2023-02-01T11:49:24.882Z,6.80
2023-02-01T11:52:07.637Z,6.90
2023-02-01T11:55:00.345Z,6.90
2023-02-01T11:57:43.134Z,6.90
2023-02-01T12:00:30.529Z,6.90
2023-02-01T12:03:24.005Z,6.90
2023-02-01T12:06:03.256Z,6.90
2023-02-01T12:08:59.729Z,6.90
2023-02-01T12:11:49.702Z,6.90
2023-02-01T12:14:33.789Z,6.90
2023-02-01T12:17:21.931Z,6.70
2023-02-01T12:20:20.002Z,6.80
2023-02-01T12:23:05.026Z,6.60
2023-02-01T12:25:47.504Z,6.50
2023-02-01T12:28:37.642Z,6.60
2023-02-01T12:31:25.031Z,6.70
2023-02-01T12:34:09.796Z,6.80
2023-02-01T12:36:48.807Z,6.70
2023-02-01T12:39:27.990Z,6.70
2023-02-01T12:42:02.486Z,6.80
2023-02-01T12:44:38.839Z,6.80
2023-02-01T12:47:15.323Z,6.80
2023-02-01T12:49:58.965Z,6.60
2023-02-01T12:52:37.183Z,6.60
2023-02-01T12:55:19.424Z,6.60
2023-02-01T12:57:53.248Z,6.60
2023-02-01T13:00:33.736Z,6.60
2023-02-01T13:03:09.683Z,6.60
2023-02-01T13:05:48.015Z,6.50
2023-02-01T13:08:21.951Z,6.50
2023-02-01T13:11:00.194Z,6.60
2023-02-01T13:13:36.167Z,6.40
2023-02-01T13:16:19.086Z,6.30
2023-02-01T13:18:53.927Z,6.30
2023-02-01T13:21:29.371Z,6.40
2023-02-01T13:23:59.663Z,6.30
2023-02-01T13:26:32.156Z,6.30
2023-02-01T13:29:06.053Z,6.30
2023-02-01T13:31:58.747Z,6.40
2023-02-01T13:34:51.124Z,6.50
2023-02-01T13:37:34.857Z,6.40
2023-02-01T13:40:26.994Z,6.50
2023-02-01T13:43:02.191Z,6.50
2023-02-01T13:45:35.442Z,6.50
2023-02-01T13:48:09.583Z,6.60
2023-02-01T13:50:42.294Z,6.60
2023-02-01T13:53:21.795Z,6.70
2023-02-01T13:56:00.300Z,6.70
2023-02-01T13:58:39.223Z,6.70
2023-02-01T14:01:47.734Z,6.80
2023-02-01T14:04:49.594Z,6.80
2023-02-01T14:07:24.900Z,6.80
2023-02-01T14:09:54.771Z,6.60
2023-02-01T14:12:47.977Z,6.60
2023-02-01T14:15:27.119Z,6.40
2023-02-01T14:17:57.946Z,6.50
2023-02-01T14:20:54.265Z,6.50
2023-02-01T14:23:30.931Z,6.60
2023-02-01T14:26:21.997Z,6.40
2023-02-01T14:28:59.427Z,6.40
2023-02-01T14:31:44.184Z,6.40
2023-02-01T14:34:20.323Z,6.40
2023-02-01T14:36:57.627Z,6.40
2023-02-01T14:39:42.609Z,6.40
2023-02-01T14:42:28.435Z,6.40
2023-02-01T14:45:00.194Z,6.40
2023-02-01T14:47:37.317Z,6.40
2023-02-01T14:50:34.574Z,6.40
2023-02-01T14:53:21.505Z,6.40
2023-02-01T14:55:59.747Z,6.30
2023-02-01T14:58:43.543Z,6.30
2023-02-01T15:01:24.053Z,6.30
2023-02-01T15:04:07.199Z,6.30
2023-02-01T15:06:42.102Z,6.30
2023-02-01T15:09:15.572Z,6.30
2023-02-01T15:12:02.171Z,6.30
2023-02-01T15:14:35.441Z,6.30
2023-02-01T15:17:05.492Z,6.30
2023-02-01T15:19:37.877Z,6.30
2023-02-01T15:22:07.622Z,6.30
2023-02-01T15:24:37.614Z,6.30
2023-02-01T15:27:09.013Z,6.40
2023-02-01T15:29:38.870Z,6.40
2023-02-01T15:32:08.664Z,6.40
2023-02-01T15:34:54.007Z,6.40
2023-02-01T15:37:25.233Z,6.40
2023-02-01T15:40:18.905Z,6.50
2023-02-01T15:42:55.641Z,6.50
2023-02-01T15:45:28.928Z,6.40
2023-02-01T15:48:01.121Z,6.40
2023-02-01T15:50:35.395Z,6.40
2023-02-01T15:53:06.117Z,6.40
2023-02-01T15:55:43.165Z,6.40
2023-02-01T15:58:20.408Z,6.50
2023-02-01T16:00:52.757Z,6.40
2023-02-01T16:03:42.251Z,6.50
2023-02-01T16:06:29.774Z,6.40
2023-02-01T16:09:05.578Z,6.40
2023-02-01T16:11:43.389Z,6.40
2023-02-01T16:14:13.208Z,6.40
2023-02-01T16:16:43.082Z,6.40
2023-02-01T16:19:13.263Z,6.40
2023-02-01T16:21:45.606Z,6.30
2023-02-01T16:24:15.700Z,6.40
2023-02-01T16:26:45.629Z,6.40
2023-02-01T16:29:16.377Z,6.40
2023-02-01T16:31:46.313Z,6.40
2023-02-01T16:34:18.800Z,6.40
2023-02-01T16:36:53.395Z,6.40
2023-02-01T16:39:23.578Z,6.40
2023-02-01T16:41:53.711Z,6.40
2023-02-01T16:44:23.530Z,6.40
2023-02-01T16:46:53.367Z,6.40
2023-02-01T16:49:26.072Z,6.40
2023-02-01T16:52:02.232Z,6.40
2023-02-01T16:54:32.118Z,6.30
2023-02-01T16:57:01.903Z,6.30
2023-02-01T16:59:31.654Z,6.30
2023-02-01T17:02:01.564Z,6.30
2023-02-01T17:04:31.535Z,6.30
2023-02-01T17:07:09.491Z,6.30
2023-02-01T17:09:40.561Z,6.30
2023-02-01T17:12:18.830Z,6.30
2023-02-01T17:14:48.614Z,6.30
2023-02-01T17:17:25.697Z,6.30
2023-02-01T17:20:02.942Z,6.30
2023-02-01T17:22:35.688Z,6.30
2023-02-01T17:25:07.018Z,6.30
2023-02-01T17:27:38.786Z,6.30
2023-02-01T17:30:10.491Z,6.30
2023-02-01T17:32:40.608Z,6.30
2023-02-01T17:35:21.512Z,6.30
2023-02-01T17:37:54.900Z,6.30
2023-02-01T17:40:24.734Z,6.30
2023-02-01T17:42:57.943Z,6.40
2023-02-01T17:45:40.591Z,6.40
2023-02-01T17:48:11.635Z,6.40
2023-02-01T17:50:42.314Z,6.40
2023-02-01T17:53:16.905Z,6.40
2023-02-01T17:55:47.546Z,6.40
2023-02-01T17:58:18.574Z,6.40
2023-02-01T18:00:49.974Z,6.40
2023-02-01T18:03:26.382Z,6.40
2023-02-01T18:05:57.742Z,6.40
2023-02-01T18:08:33.439Z,6.30
2023-02-01T18:11:04.630Z,6.30
2023-02-01T18:13:35.581Z,6.30
2023-02-01T18:16:05.661Z,6.30
2023-02-01T18:18:38.011Z,6.30
2023-02-01T18:21:08.750Z,6.30
2023-02-01T18:23:41.347Z,6.30
2023-02-01T18:26:12.907Z,6.30
2023-02-01T18:28:42.731Z,6.30
2023-02-01T18:31:24.737Z,6.30
2023-02-01T18:33:56.567Z,6.30
2023-02-01T18:36:26.711Z,6.30
2023-02-01T18:38:59.154Z,6.30
2023-02-01T18:41:29.235Z,6.20
2023-02-01T18:43:59.115Z,6.20
2023-02-01T18:46:29.201Z,6.20
2023-02-01T18:48:59.051Z,6.20
2023-02-01T18:51:28.908Z,6.20
2023-02-01T18:54:01.386Z,6.20
2023-02-01T18:56:31.170Z,6.20
2023-02-01T18:59:00.960Z,6.30
2023-02-01T19:01:31.091Z,6.30
2023-02-01T19:04:02.905Z,6.30
2023-02-01T19:06:38.020Z,6.30
2023-02-01T19:09:10.479Z,6.40
2023-02-01T19:11:40.306Z,6.40
2023-02-01T19:14:10.122Z,6.30
2023-02-01T19:16:40.382Z,6.30
2023-02-01T19:19:10.359Z,6.40
2023-02-01T19:21:40.295Z,6.30
2023-02-01T19:24:12.943Z,6.40
2023-02-01T19:26:44.014Z,6.30
2023-02-01T19:29:14.094Z,6.30
2023-02-01T19:31:46.527Z,6.30
2023-02-01T19:34:16.969Z,6.30
2023-02-01T19:36:47.928Z,6.30
2023-02-01T19:39:21.462Z,6.30
2023-02-01T19:41:51.320Z,6.30
2023-02-01T19:44:21.298Z,6.30
2023-02-01T19:46:51.115Z,6.30
2023-02-01T19:49:20.910Z,6.30
2023-02-01T19:51:51.415Z,6.30
2023-02-01T19:54:24.175Z,6.40
2023-02-01T19:56:54.038Z,6.30
2023-02-01T19:59:24.641Z,6.30
2023-02-01T20:01:53.698Z,6.30
2023-02-01T20:04:23.985Z,6.30
2023-02-01T20:06:54.985Z,6.30
2023-02-01T20:09:29.658Z,6.30
2023-02-01T20:11:59.535Z,6.30
2023-02-01T20:14:29.772Z,6.40
2023-02-01T20:16:59.633Z,6.50
2023-02-01T20:19:29.953Z,6.50
2023-02-01T20:22:00.114Z,6.40
2023-02-01T20:24:32.583Z,6.50
2023-02-01T20:27:03.326Z,6.50
2023-02-01T20:29:33.203Z,6.50
2023-02-01T20:32:04.162Z,6.50
2023-02-01T20:34:34.282Z,6.60
2023-02-01T20:37:04.091Z,6.60
2023-02-01T20:39:36.471Z,6.60
2023-02-01T20:42:06.408Z,6.60
2023-02-01T20:44:36.232Z,6.50
2023-02-01T20:47:06.226Z,6.60
2023-02-01T20:49:40.444Z,6.50
2023-02-01T20:52:10.370Z,6.50
2023-02-01T20:54:42.909Z,6.50
2023-02-01T20:57:12.791Z,6.60
2023-02-01T20:59:43.198Z,6.60
2023-02-01T21:02:13.690Z,6.60
2023-02-01T21:04:43.639Z,6.50
2023-02-01T21:07:14.339Z,6.50
2023-02-01T21:09:47.082Z,6.50
2023-02-01T21:12:16.951Z,6.60
2023-02-01T21:14:46.894Z,6.50
2023-02-01T21:17:16.862Z,6.50
2023-02-01T21:19:46.668Z,6.50
2023-02-01T21:22:17.954Z,6.50
2023-02-01T21:24:50.432Z,6.50
2023-02-01T21:27:21.122Z,6.50
2023-02-01T21:29:50.994Z,6.50
2023-02-01T21:32:20.943Z,6.50
2023-02-01T21:34:50.782Z,6.50
2023-02-01T21:37:25.700Z,6.50
2023-02-01T21:39:58.877Z,6.50
2023-02-01T21:42:30.610Z,6.50
2023-02-01T21:45:02.331Z,6.50
2023-02-01T21:47:32.250Z,6.50
2023-02-01T21:50:03.789Z,6.50
2023-02-01T21:52:33.962Z,6.40
2023-02-01T21:55:07.421Z,6.40
2023-02-01T21:57:37.579Z,6.50
2023-02-01T22:00:09.179Z,6.50
2023-02-01T22:02:39.382Z,6.50
2023-02-01T22:05:11.209Z,6.50
2023-02-01T22:07:41.242Z,6.40
2023-02-01T22:10:15.288Z,6.40
2023-02-01T22:12:45.231Z,6.50
2023-02-01T22:15:15.277Z,6.50
2023-02-01T22:17:45.181Z,6.50
2023-02-01T22:20:15.565Z,6.50
2023-02-01T22:22:45.520Z,6.50
2023-02-01T22:25:18.127Z,6.50
2023-02-01T22:28:32.442Z,6.50
2023-02-01T22:30:37.878Z,6.50
2023-02-01T22:33:07.694Z,6.50
2023-02-01T22:35:37.585Z,6.40
2023-02-01T22:38:07.399Z,6.40
2023-02-01T22:40:39.843Z,6.40
2023-02-01T22:43:09.700Z,6.30
2023-02-01T22:45:40.322Z,6.30
2023-02-01T22:48:10.185Z,6.30
2023-02-01T22:50:39.975Z,6.20
2023-02-01T22:53:09.875Z,6.20
2023-02-01T22:55:45.487Z,6.20
2023-02-01T22:58:15.344Z,6.20
2023-02-01T23:00:45.260Z,6.10
2023-02-01T23:03:15.227Z,6.10
2023-02-01T23:05:45.137Z,6.20
2023-02-01T23:08:14.996Z,6.10
2023-02-01T23:10:47.422Z,6.10
2023-02-01T23:13:17.194Z,6.10
2023-02-01T23:15:47.025Z,6.10
2023-02-01T23:18:17.167Z,6.10
2023-02-01T23:20:46.998Z,6.20
2023-02-01T23:23:16.959Z,6.20
2023-02-01T23:25:54.833Z,6.20
2023-02-01T23:28:24.640Z,6.20
2023-02-01T23:30:54.501Z,6.20
2023-02-01T23:33:25.758Z,6.20
2023-02-01T23:36:00.174Z,6.20
2023-02-01T23:38:30.980Z,6.20
2023-02-01T23:41:05.119Z,6.20
2023-02-01T23:43:47.965Z,6.20
2023-02-01T23:46:18.742Z,6.20
2023-02-01T23:48:50.979Z,6.20
2023-02-01T23:51:21.771Z,6.20
2023-02-01T23:53:51.721Z,6.20
2023-02-01T23:56:26.776Z,6.20
2023-02-01T23:58:57.515Z,6.20
